Time;durP1;ratioP1;P1;durP2;ratioP2;P2;SDS_P1;SDS_P2;PMS_P1;PMS_P2;Temp;Humidity;BMP_temperature;BMP_pressure;BME280_temperature;BME280_humidity;BME280_pressure;Samples;Min_cycle;Max_cycle;Signal;HPM_P1;HPM_P2
2023/09/07 00:01:19;;;;;;;5.10;4.20;;;;;;;;;;5030453;28;20500;-68
2023/09/07 00:03:45;;;;;;;4.60;4.10;;;;;;;;;;5029076;28;20287;-67
2023/09/07 00:06:11;;;;;;;5.07;3.60;;;;;;;;;;5028888;28;20482;-66
2023/09/07 00:08:37;;;;;;;4.07;3.55;;;;;;;;;;5029579;28;20183;-68
2023/09/07 00:11:04;;;;;;;6.22;4.22;;;;;;;;;;5030434;28;20097;-66
2023/09/07 00:13:29;;;;;;;4.78;3.28;;;15.50;99.90;;;;;;5029260;28;20029;-68
2023/09/07 00:16:02;;;;;;;4.72;3.70;;;15.50;99.90;;;;;;5030090;28;20434;-67
2023/09/07 00:18:28;;;;;;;3.75;3.35;;;15.40;99.90;;;;;;5029229;28;20028;-68
2023/09/07 00:20:54;;;;;;;3.72;3.33;;;15.30;99.90;;;;;;5030393;28;20029;-67
2023/09/07 00:23:20;;;;;;;4.85;3.88;;;15.30;99.90;;;;;;5028199;28;20045;-66
2023/09/07 00:25:46;;;;;;;4.95;3.97;;;15.30;99.90;;;;;;5029389;28;20021;-66
2023/09/07 00:28:12;;;;;;;5.30;3.90;;;15.20;99.90;;;;;;5029505;28;20109;-66
2023/09/07 00:30:38;;;;;;;6.65;4.10;;;15.10;99.90;;;;;;5029100;28;20097;-67
2023/09/07 00:33:03;;;;;;;5.93;3.95;;;15.10;99.90;;;;;;5030252;28;20028;-66
2023/09/07 00:35:29;;;;;;;7.47;4.22;;;15.10;99.90;;;;;;5032873;28;20088;-67
2023/09/07 00:37:55;;;;;;;6.03;4.00;;;15.10;99.90;;;;;;5032335;28;20037;-66
2023/09/07 00:40:22;;;;;;;7.18;3.60;;;15.00;99.90;;;;;;5040694;28;20096;-66
2023/09/07 00:42:47;;;;;;;4.22;3.83;;;15.00;99.90;;;;;;5032699;28;20056;-66
2023/09/07 00:45:13;;;;;;;5.03;4.32;;;15.00;99.90;;;;;;5033517;28;20022;-66
2023/09/07 00:47:39;;;;;;;4.88;3.92;;;15.00;99.90;;;;;;5032801;28;20029;-66
2023/09/07 00:50:06;;;;;;;5.10;4.00;;;15.00;99.90;;;;;;5034274;28;20029;-67
2023/09/07 00:52:32;;;;;;;4.78;4.28;;;15.00;99.90;;;;;;5033331;28;20116;-68
2023/09/07 00:55:01;;;;;;;4.38;3.97;;;14.90;99.90;;;;;;5016969;28;20034;-67
2023/09/07 00:57:26;;;;;;;6.03;3.70;;;14.90;99.90;;;;;;5013759;28;20034;-68
2023/09/07 00:59:52;;;;;;;5.10;4.38;;;14.90;99.90;;;;;;5013857;28;20033;-67
2023/09/07 01:02:18;;;;;;;5.63;4.18;;;14.80;99.90;;;;;;5014188;28;20081;-67
2023/09/07 01:04:43;;;;;;;4.93;4.43;;;14.80;99.90;;;;;;5012616;28;20033;-68
2023/09/07 01:07:19;;;;;;;4.68;4.05;;;14.80;99.90;;;;;;5014187;28;20033;-68
2023/09/07 01:09:48;;;;;;;8.50;4.80;;;14.80;99.90;;;;;;5019619;28;20021;-67
2023/09/07 01:12:15;;;;;;;6.50;4.90;;;14.70;99.90;;;;;;5033618;28;20045;-67
2023/09/07 01:14:41;;;;;;;4.75;4.18;;;14.70;99.90;;;;;;5032246;28;20661;-67
2023/09/07 01:17:08;;;;;;;5.03;4.50;;;14.70;99.90;;;;;;5033791;28;20075;-67
2023/09/07 01:19:34;;;;;;;4.90;4.30;;;14.70;99.90;;;;;;5032469;28;20462;-68
2023/09/07 01:22:00;;;;;;;5.30;4.30;;;14.60;99.90;;;;;;5033352;28;20030;-68
2023/09/07 01:24:29;;;;;;;5.07;4.45;;;14.50;99.90;;;;;;5030896;28;20060;-68
2023/09/07 01:26:57;;;;;;;6.18;4.07;;;14.60;99.90;;;;;;5015192;28;20108;-67
2023/09/07 01:29:22;;;;;;;4.53;4.05;;;14.60;99.90;;;;;;5013006;28;20022;-67
2023/09/07 01:31:48;;;;;;;6.13;4.05;;;14.50;99.90;;;;;;5028783;28;20099;-67
2023/09/07 01:34:14;;;;;;;6.10;4.30;;;14.50;99.90;;;;;;5032666;28;20366;-67
2023/09/07 01:36:40;;;;;;;4.80;4.22;;;14.50;99.90;;;;;;5032538;28;20038;-67
2023/09/07 01:39:08;;;;;;;5.22;4.50;;;14.40;99.90;;;;;;5032869;28;20191;-67
2023/09/07 01:41:34;;;;;;;4.72;3.95;;;14.40;99.90;;;;;;5031224;28;20477;-66
2023/09/07 01:43:59;;;;;;;5.00;4.45;;;14.40;99.90;;;;;;5031385;28;20147;-67
2023/09/07 01:46:25;;;;;;;5.22;4.22;;;14.40;99.90;;;;;;5034442;28;20477;-68
2023/09/07 01:48:50;;;;;;;5.03;4.00;;;14.30;99.90;;;;;;5034352;28;20025;-67
2023/09/07 01:51:16;;;;;;;4.47;3.90;;;14.30;99.90;;;;;;5038981;28;20033;-67
2023/09/07 01:53:42;;;;;;;4.45;4.05;;;14.30;99.90;;;;;;5040405;28;20030;-67
2023/09/07 01:56:07;;;;;;;5.00;4.28;;;14.30;99.90;;;;;;5041887;28;20034;-67
2023/09/07 01:58:33;;;;;;;5.47;4.72;;;14.30;99.90;;;;;;5037935;28;20130;-68
2023/09/07 02:00:59;;;;;;;5.78;4.10;;;14.30;99.90;;;;;;5041169;28;20041;-67
2023/09/07 02:03:25;;;;;;;5.13;4.53;;;14.30;99.90;;;;;;5040978;28;20144;-68
2023/09/07 02:05:53;;;;;;;8.23;4.22;;;14.30;99.90;;;;;;5040159;28;20068;-67
2023/09/07 02:08:19;;;;;;;6.30;4.22;;;14.30;99.90;;;;;;5040309;28;20025;-67
2023/09/07 02:10:44;;;;;;;5.55;4.25;;;14.20;99.90;;;;;;5039987;28;20102;-67
2023/09/07 02:13:11;;;;;;;4.45;4.05;;;14.20;99.90;;;;;;5036675;28;20080;-68
2023/09/07 02:15:40;;;;;;;5.00;3.75;;;14.10;99.90;;;;;;5033164;28;20046;-67
2023/09/07 02:18:06;;;;;;;4.88;4.03;;;14.10;99.90;;;;;;5034368;28;20116;-67
2023/09/07 02:20:34;;;;;;;4.90;3.92;;;14.10;99.90;;;;;;5037582;28;20104;-67
2023/09/07 02:23:00;;;;;;;4.85;4.10;;;14.00;99.90;;;;;;5037517;28;20053;-67
2023/09/07 02:25:27;;;;;;;5.28;4.63;;;14.00;99.90;;;;;;5031364;28;20024;-67
2023/09/07 02:27:53;;;;;;;4.93;4.20;;;13.90;99.90;;;;;;5015628;28;20526;-67
2023/09/07 02:30:18;;;;;;;5.05;4.55;;;13.90;99.90;;;;;;5019277;28;20045;-67
2023/09/07 02:32:44;;;;;;;5.93;4.05;;;13.90;99.90;;;;;;5032352;28;20116;-67
2023/09/07 02:35:10;;;;;;;5.20;4.05;;;13.90;99.90;;;;;;5032597;28;20021;-68
2023/09/07 02:37:36;;;;;;;4.90;4.40;;;13.90;99.90;;;;;;5031255;28;20036;-67
2023/09/07 02:40:04;;;;;;;4.80;4.40;;;13.90;99.90;;;;;;5032191;28;20017;-67
2023/09/07 02:42:30;;;;;;;4.97;4.35;;;13.90;99.90;;;;;;5031117;28;20549;-68
2023/09/07 02:44:55;;;;;;;5.47;4.50;;;13.80;99.90;;;;;;5030516;28;20100;-67
2023/09/07 02:47:21;;;;;;;5.63;4.57;;;13.80;99.90;;;;;;5032349;28;20029;-67
2023/09/07 02:49:47;;;;;;;5.70;4.82;;;13.80;99.90;;;;;;5029647;28;20061;-67
2023/09/07 02:52:12;;;;;;;6.22;4.55;;;13.70;99.90;;;;;;5014131;28;20083;-67
2023/09/07 02:54:38;;;;;;;5.32;4.55;;;13.70;99.90;;;;;;5030601;28;20066;-67
2023/09/07 02:57:03;;;;;;;5.05;4.53;;;13.70;99.90;;;;;;5031368;28;20487;-67
2023/09/07 02:59:29;;;;;;;6.38;4.55;;;13.60;99.90;;;;;;5030433;28;20389;-67
2023/09/07 03:01:55;;;;;;;5.93;4.70;;;13.60;99.90;;;;;;5032315;28;20017;-68
2023/09/07 03:04:20;;;;;;;6.43;4.82;;;13.50;99.90;;;;;;5041794;28;20041;-67
2023/09/07 03:06:46;;;;;;;7.40;5.30;;;13.50;99.90;;;;;;5045337;28;20037;-68
2023/09/07 03:09:12;;;;;;;6.15;4.88;;;13.50;99.90;;;;;;5045735;28;20049;-67
2023/09/07 03:11:37;;;;;;;7.20;4.90;;;13.50;99.90;;;;;;5044683;28;20469;-67
2023/09/07 03:14:03;;;;;;;6.10;5.25;;;13.50;99.90;;;;;;5042489;28;20128;-66
2023/09/07 03:16:30;;;;;;;8.35;5.20;;;13.40;99.90;;;;;;5040895;28;20033;-68
2023/09/07 03:18:55;;;;;;;4.97;4.40;;;13.40;99.90;;;;;;5033097;28;20022;-67
2023/09/07 03:21:25;;;;;;;6.32;4.70;;;13.40;99.90;;;;;;5031542;28;20032;-67
2023/09/07 03:23:52;;;;;;;6.70;4.75;;;13.40;99.90;;;;;;5030085;28;20187;-67
2023/09/07 03:26:17;;;;;;;6.35;4.70;;;13.30;99.90;;;;;;5018433;28;20068;-67
2023/09/07 03:28:43;;;;;;;6.05;4.82;;;13.30;99.90;;;;;;5010573;28;20098;-68
2023/09/07 03:31:08;;;;;;;6.30;5.53;;;13.30;99.90;;;;;;5004409;28;20091;-68
2023/09/07 03:33:34;;;;;;;7.68;5.55;;;13.30;99.90;;;;;;5030123;28;20026;-67
2023/09/07 03:36:00;;;;;;;5.85;4.97;;;13.30;99.90;;;;;;5031469;28;20038;-67
2023/09/07 03:38:25;;;;;;;6.50;5.43;;;13.40;99.90;;;;;;5028817;28;20030;-68
2023/09/07 03:40:51;;;;;;;7.93;5.50;;;13.40;99.90;;;;;;5030743;28;20034;-67
2023/09/07 03:43:17;;;;;;;8.02;5.28;;;13.40;99.90;;;;;;5030721;28;20096;-67
2023/09/07 03:45:43;;;;;;;6.85;4.88;;;13.50;99.90;;;;;;5030473;28;20101;-67
2023/09/07 03:48:09;;;;;;;6.32;4.88;;;13.50;99.90;;;;;;5030483;28;20487;-67
2023/09/07 03:50:35;;;;;;;7.20;4.88;;;13.40;99.90;;;;;;5030310;28;20143;-67
2023/09/07 03:53:01;;;;;;;6.05;5.22;;;13.40;99.90;;;;;;5030534;28;20343;-67
2023/09/07 03:55:26;;;;;;;9.52;5.70;;;13.40;99.90;;;;;;5029256;28;20106;-67
2023/09/07 03:57:52;;;;;;;8.90;5.63;;;13.30;99.90;;;;;;5030009;28;20100;-67
2023/09/07 04:00:18;;;;;;;8.98;5.88;;;13.30;99.90;;;;;;5030963;28;20119;-67
2023/09/07 04:02:44;;;;;;;6.22;4.95;;;13.20;99.90;;;;;;5029561;28;20080;-67
2023/09/07 04:05:10;;;;;;;7.43;5.90;;;13.20;99.90;;;;;;5031002;28;20029;-67
2023/09/07 04:07:37;;;;;;;6.00;5.03;;;13.10;99.90;;;;;;5030100;28;20124;-67
2023/09/07 04:10:02;;;;;;;6.28;5.68;;;13.10;99.90;;;;;;5035123;28;20366;-67
2023/09/07 04:12:28;;;;;;;8.60;5.63;;;13.10;99.90;;;;;;5033365;28;20029;-68
2023/09/07 04:14:54;;;;;;;7.15;5.32;;;13.10;99.90;;;;;;5035071;28;20025;-67
2023/09/07 04:17:19;;;;;;;7.53;5.82;;;13.10;99.90;;;;;;5035305;28;20033;-67
2023/09/07 04:19:45;;;;;;;6.05;4.70;;;13.00;99.90;;;;;;5032371;28;20024;-66
2023/09/07 04:22:11;;;;;;;8.68;5.63;;;12.90;99.90;;;;;;5035223;28;20030;-66
2023/09/07 04:24:37;;;;;;;7.43;6.25;;;12.90;99.90;;;;;;5033404;28;20505;-66
2023/09/07 04:27:03;;;;;;;6.55;5.63;;;12.90;99.90;;;;;;5015696;28;20030;-66
2023/09/07 04:29:29;;;;;;;6.15;5.45;;;12.90;99.90;;;;;;5032587;28;20037;-66
2023/09/07 04:31:55;;;;;;;6.85;5.45;;;12.80;99.90;;;;;;5018145;28;20029;-66
2023/09/07 04:34:22;;;;;;;6.85;5.57;;;12.80;99.90;;;;;;5014659;28;20037;-66
2023/09/07 04:36:47;;;;;;;7.95;6.10;;;12.80;99.90;;;;;;5014321;28;20191;-66
2023/09/07 04:39:14;;;;;;;7.45;5.38;;;12.90;99.90;;;;;;5023630;28;20474;-66
2023/09/07 04:41:40;;;;;;;7.72;5.45;;;12.80;99.90;;;;;;5033777;28;20037;-67
2023/09/07 04:44:06;;;;;;;7.80;6.30;;;12.80;99.90;;;;;;5033101;28;20033;-66
2023/09/07 04:46:31;;;;;;;7.20;6.25;;;12.80;99.90;;;;;;5033757;28;20541;-66
2023/09/07 04:48:57;;;;;;;6.63;5.95;;;12.80;99.90;;;;;;5033961;28;20121;-67
2023/09/07 04:51:23;;;;;;;7.55;5.88;;;12.70;99.90;;;;;;5034099;28;20029;-66
2023/09/07 04:53:49;;;;;;;6.80;6.10;;;12.70;99.90;;;;;;5033350;28;20057;-65
2023/09/07 04:56:16;;;;;;;7.68;6.15;;;12.70;99.90;;;;;;5034685;28;20088;-66
2023/09/07 04:58:42;;;;;;;8.82;6.47;;;12.70;99.90;;;;;;5033193;28;20121;-66
2023/09/07 05:01:11;;;;;;;9.55;5.82;;;12.70;99.90;;;;;;5032916;28;20097;-66
2023/09/07 05:03:37;;;;;;;9.25;6.95;;;12.70;99.90;;;;;;5033267;28;20021;-66
2023/09/07 05:06:04;;;;;;;7.03;6.32;;;12.70;99.90;;;;;;5034245;28;20156;-67
2023/09/07 05:08:29;;;;;;;7.55;6.57;;;12.70;99.90;;;;;;5032927;28;20034;-68
2023/09/07 05:11:00;;;;;;;8.18;6.32;;;12.80;99.90;;;;;;5033982;28;20021;-67
2023/09/07 05:13:26;;;;;;;10.27;6.80;;;12.80;99.90;;;;;;5033191;28;20030;-69
2023/09/07 05:15:53;;;;;;;9.75;6.85;;;12.80;99.90;;;;;;5033797;28;20171;-68
2023/09/07 05:18:19;;;;;;;9.77;6.95;;;12.80;99.90;;;;;;5032762;28;20038;-68
2023/09/07 05:20:45;;;;;;;10.32;7.28;;;12.80;99.90;;;;;;5032367;28;20048;-67
2023/09/07 05:23:15;;;;;;;9.80;6.68;;;12.90;99.90;;;;;;5033054;28;20045;-67
2023/09/07 05:25:53;;;;;;;8.57;7.20;;;13.00;99.90;;;;;;5025046;28;20058;-67
2023/09/07 05:28:19;;;;;;;8.45;7.03;;;13.10;99.90;;;;;;5013555;28;20030;-71
2023/09/07 05:30:45;;;;;;;9.18;7.60;;;13.20;99.90;;;;;;5016964;28;20030;-67
2023/09/07 05:33:12;;;;;;;8.98;6.63;;;13.30;99.90;;;;;;5033212;28;20057;-67
2023/09/07 05:35:38;;;;;;;9.80;7.20;;;13.40;99.90;;;;;;5032642;28;20363;-67
2023/09/07 05:38:06;;;;;;;9.05;7.10;;;13.50;99.90;;;;;;5032987;28;20041;-67
2023/09/07 05:40:37;;;;;;;15.07;8.25;;;13.50;99.90;;;;;;5028939;28;20025;-66
2023/09/07 05:43:03;;;;;;;8.82;7.07;;;13.60;99.90;;;;;;5013185;28;20026;-66
2023/09/07 05:45:39;;;;;;;9.15;7.30;;;13.70;99.90;;;;;;5025334;28;20132;-68
2023/09/07 05:48:05;;;;;;;11.65;8.15;;;13.80;99.90;;;;;;5031642;28;20037;-67
2023/09/07 05:50:35;;;;;;;9.40;7.40;;;13.90;99.90;;;;;;5032504;28;20033;-68
2023/09/07 05:53:01;;;;;;;10.55;7.32;;;14.10;99.90;;;;;;5032989;28;20033;-67
2023/09/07 05:55:27;;;;;;;13.65;7.57;;;14.10;99.90;;;;;;5032891;28;20035;-67
2023/09/07 05:57:55;;;;;;;11.55;7.88;;;14.20;99.90;;;;;;5032430;28;20104;-67
2023/09/07 06:00:20;;;;;;;10.80;8.20;;;14.30;99.90;;;;;;5033380;28;20029;-67
2023/09/07 06:02:46;;;;;;;12.93;8.45;;;14.40;99.90;;;;;;5030453;28;20091;-69
2023/09/07 06:05:12;;;;;;;9.90;7.80;;;14.50;99.90;;;;;;5033293;28;20074;-66
2023/09/07 06:07:38;;;;;;;11.40;7.47;;;14.60;99.90;;;;;;5031338;28;20032;-67
2023/09/07 06:10:05;;;;;;;9.85;7.47;;;14.70;99.90;;;;;;5032616;28;20029;-66
2023/09/07 06:12:34;;;;;;;13.80;8.80;;;14.80;99.90;;;;;;5031187;28;20021;-69
2023/09/07 06:15:00;;;;;;;12.18;8.05;;;14.90;99.90;;;;;;5032921;28;20037;-68
2023/09/07 06:17:27;;;;;;;11.85;7.47;;;15.10;99.90;;;;;;5032432;28;20064;-68
2023/09/07 06:19:53;;;;;;;10.32;8.15;;;15.20;99.90;;;;;;5030876;28;20025;-67
2023/09/07 06:22:18;;;;;;;10.30;7.50;;;15.30;99.90;;;;;;5032447;28;20381;-67
2023/09/07 06:24:44;;;;;;;12.05;8.25;;;15.40;99.90;;;;;;5030661;28;20045;-68
2023/09/07 06:27:10;;;;;;;12.30;9.25;;;15.50;99.90;;;;;;5012803;28;20022;-66
2023/09/07 06:29:35;;;;;;;9.85;7.03;;;15.60;99.90;;;;;;5011668;28;20140;-70
2023/09/07 06:32:01;;;;;;;10.93;7.82;;;15.70;99.90;;;;;;5030195;28;20032;-78
2023/09/07 06:34:26;;;;;;;9.27;8.07;;;15.90;99.90;;;;;;5031649;28;20409;-78
2023/09/07 06:36:52;;;;;;;9.30;7.18;;;16.00;99.90;;;;;;5028675;28;20036;-73
2023/09/07 06:39:17;;;;;;;10.48;7.85;;;16.10;99.90;;;;;;5031831;28;20100;-74
2023/09/07 06:41:46;;;;;;;10.93;6.97;;;16.20;99.90;;;;;;5031866;28;20175;-71
2023/09/07 06:44:11;;;;;;;10.95;8.00;;;16.30;99.90;;;;;;5031875;28;20033;-72
2023/09/07 06:46:37;;;;;;;11.02;8.15;;;16.40;99.90;;;;;;5031902;28;20029;-70
2023/09/07 06:49:03;;;;;;;10.43;7.30;;;16.50;99.90;;;;;;5031750;28;20025;-76
2023/09/07 06:51:30;;;;;;;12.45;7.82;;;16.70;99.90;;;;;;5032101;28;20087;-83
2023/09/07 06:53:56;;;;;;;12.95;7.65;;;16.80;99.90;;;;;;5030021;28;20493;-72
2023/09/07 06:56:22;;;;;;;11.15;7.65;;;17.00;99.90;;;;;;5026414;28;20037;-73
2023/09/07 06:58:48;;;;;;;10.50;7.47;;;17.10;99.90;;;;;;5027913;28;20021;-72
2023/09/07 07:01:13;;;;;;;11.57;8.35;;;17.10;99.90;;;;;;5029828;28;20124;-73
2023/09/07 07:03:39;;;;;;;12.02;8.93;;;17.20;99.90;;;;;;5013018;28;20121;-72
2023/09/07 07:06:05;;;;;;;12.85;8.93;;;17.40;99.90;;;;;;5031674;28;20450;-72
2023/09/07 07:08:30;;;;;;;11.02;8.30;;;17.50;99.90;;;;;;5030431;28;20030;-73
2023/09/07 07:10:56;;;;;;;16.48;8.60;;;17.60;99.90;;;;;;5031663;28;20021;-72
2023/09/07 07:13:21;;;;;;;14.20;8.07;;;17.70;99.90;;;;;;5031139;28;20099;-72
2023/09/07 07:15:48;;;;;;;12.52;8.02;;;17.70;99.90;;;;;;5030511;28;20040;-73
2023/09/07 07:18:13;;;;;;;11.95;7.20;;;17.80;99.90;;;;;;5031279;28;20032;-74
2023/09/07 07:20:40;;;;;;;11.13;8.07;;;17.90;99.90;;;;;;5031039;28;20025;-73
2023/09/07 07:23:08;;;;;;;13.52;7.45;;;18.10;99.90;;;;;;5030482;28;20041;-80
2023/09/07 07:25:34;;;;;;;12.80;7.38;;;18.20;99.90;;;;;;5030764;28;20112;-73
2023/09/07 07:28:07;;;;;;;12.32;7.95;;;18.40;99.90;;;;;;5029566;28;20037;-73
2023/09/07 07:30:34;;;;;;;7.15;5.90;;;18.50;99.90;;;;;;5013526;28;20021;-73
2023/09/07 07:33:00;;;;;;;9.18;6.68;;;18.50;99.90;;;;;;5031406;28;20026;-73
2023/09/07 07:35:26;;;;;;;11.20;7.13;;;18.70;99.90;;;;;;5030293;28;20052;-74
2023/09/07 07:37:52;;;;;;;10.63;6.90;;;19.00;99.90;;;;;;5030558;28;20463;-74
2023/09/07 07:40:18;;;;;;;13.13;7.10;;;19.10;99.90;;;;;;5031492;28;20049;-73
2023/09/07 07:42:46;;;;;;;10.55;6.75;;;19.20;99.90;;;;;;5026787;28;20033;-73
2023/09/07 07:45:12;;;;;;;16.80;7.47;;;19.30;99.90;;;;;;5045960;28;20045;-72
2023/09/07 07:47:38;;;;;;;12.90;6.97;;;19.40;99.90;;;;;;5037411;28;20458;-73
2023/09/07 07:50:04;;;;;;;9.30;6.10;;;19.40;99.90;;;;;;5038721;28;20029;-72
2023/09/07 07:52:30;;;;;;;12.13;6.93;;;19.50;99.90;;;;;;5029648;28;20044;-72
2023/09/07 07:54:55;;;;;;;11.15;5.57;;;19.50;99.90;;;;;;5030991;28;20033;-72
2023/09/07 07:57:21;;;;;;;11.20;6.32;;;19.50;99.90;;;;;;5031317;28;20156;-72
2023/09/07 07:59:47;;;;;;;7.85;5.88;;;19.60;99.90;;;;;;5036586;28;20075;-73
2023/09/07 08:02:12;;;;;;;8.52;6.53;;;19.70;99.90;;;;;;5037595;28;20486;-71
2023/09/07 08:04:38;;;;;;;7.55;5.72;;;19.90;99.90;;;;;;5029858;28;20034;-73
2023/09/07 08:07:04;;;;;;;8.23;6.05;;;20.00;99.90;;;;;;5031143;28;20425;-72
2023/09/07 08:09:30;;;;;;;8.43;5.13;;;20.20;99.90;;;;;;5025973;28;20539;-73
2023/09/07 08:11:57;;;;;;;8.05;6.05;;;20.30;99.90;;;;;;5030787;28;20021;-72
2023/09/07 08:14:24;;;;;;;12.73;5.80;;;20.40;99.90;;;;;;5030208;28;20029;-71
2023/09/07 08:16:49;;;;;;;6.00;5.00;;;20.60;99.90;;;;;;5030354;28;20453;-72
2023/09/07 08:19:15;;;;;;;8.02;5.82;;;20.70;99.90;;;;;;5030567;28;20053;-72
2023/09/07 08:21:42;;;;;;;8.75;5.65;;;20.80;99.90;;;;;;5029966;28;20386;-72
2023/09/07 08:24:08;;;;;;;6.88;5.40;;;21.10;99.90;;;;;;5029691;28;20464;-72
2023/09/07 08:26:35;;;;;;;9.75;5.25;;;21.20;99.90;;;;;;5030073;28;20033;-72
2023/09/07 08:29:05;;;;;;;5.45;4.95;;;21.30;99.90;;;;;;5012576;28;20359;-72
2023/09/07 08:31:38;;;;;;;10.52;5.82;;;21.40;99.90;;;;;;5030067;28;20028;-68
2023/09/07 08:34:06;;;;;;;8.60;5.80;;;21.50;99.90;;;;;;5030059;28;20041;-69
2023/09/07 08:36:33;;;;;;;12.05;6.07;;;21.60;99.90;;;;;;5029963;28;20112;-69
2023/09/07 08:39:07;;;;;;;8.15;6.60;;;21.70;99.90;;;;;;5030146;28;20029;-69
2023/09/07 08:41:44;;;;;;;7.68;5.53;;;21.80;99.90;;;;;;5029813;28;20077;-70
2023/09/07 08:44:17;;;;;;;7.60;5.97;;;21.90;99.90;;;;;;5030048;28;20037;-69
2023/09/07 08:46:43;;;;;;;10.43;6.65;;;21.90;99.90;;;;;;5029657;28;20493;-69
2023/09/07 08:49:12;;;;;;;6.88;5.68;;;22.10;99.90;;;;;;5030380;28;20034;-70
2023/09/07 08:51:38;;;;;;;8.93;5.32;;;22.10;99.90;;;;;;5029654;28;20036;-70
2023/09/07 08:54:05;;;;;;;7.78;5.65;;;22.20;99.90;;;;;;5030851;28;20040;-70
2023/09/07 08:56:31;;;;;;;7.72;5.30;;;22.20;99.90;;;;;;5033651;28;20029;-70
2023/09/07 08:58:57;;;;;;;6.07;5.13;;;22.30;99.90;;;;;;5034052;28;20021;-70
2023/09/07 09:01:23;;;;;;;5.30;4.80;;;22.40;99.90;;;;;;5034578;28;20026;-70
2023/09/07 09:03:49;;;;;;;5.78;5.05;;;22.50;99.90;;;;;;5032909;28;20034;-70
2023/09/07 09:06:18;;;;;;;6.97;5.72;;;22.60;99.90;;;;;;5034443;28;20038;-69
2023/09/07 09:08:53;;;;;;;6.18;5.00;;;22.70;99.90;;;;;;5033051;28;20025;-70
2023/09/07 09:11:21;;;;;;;8.98;5.80;;;22.80;99.90;;;;;;5034010;28;20450;-70
2023/09/07 09:13:47;;;;;;;5.93;4.78;;;22.90;99.90;;;;;;5032356;28;20028;-70
2023/09/07 09:16:13;;;;;;;7.75;5.40;;;22.90;99.90;;;;;;5033674;28;20037;-70
2023/09/07 09:18:54;;;;;;;8.88;5.90;;;23.00;99.90;;;;;;5032771;28;20116;-70
2023/09/07 09:21:24;;;;;;;11.35;5.60;;;23.10;99.90;;;;;;5032772;28;20041;-70
2023/09/07 09:23:53;;;;;;;6.97;5.00;;;23.10;99.90;;;;;;5032947;28;20053;-70
2023/09/07 09:26:19;;;;;;;7.15;5.25;;;23.30;99.90;;;;;;5034061;28;20100;-69
2023/09/07 09:28:45;;;;;;;5.53;5.03;;;23.50;99.90;;;;;;5032552;28;20113;-70
2023/09/07 09:31:14;;;;;;;5.38;4.55;;;23.60;99.90;;;;;;5033305;28;20390;-70
2023/09/07 09:33:41;;;;;;;6.47;5.00;;;23.70;99.90;;;;;;5032063;28;20037;-70
2023/09/07 09:36:07;;;;;;;9.50;5.40;;;;;;;;;;5033871;28;20037;-70
2023/09/07 09:38:34;;;;;;;7.07;5.05;;;24.20;99.90;;;;;;5032300;28;20161;-71
2023/09/07 09:41:00;;;;;;;9.93;5.50;;;24.20;99.90;;;;;;5015940;28;20131;-70
2023/09/07 09:43:26;;;;;;;8.18;4.85;;;24.30;99.90;;;;;;5032729;28;20510;-71
2023/09/07 09:45:52;;;;;;;8.32;5.22;;;24.30;99.90;;;;;;5033345;28;20109;-70
2023/09/07 09:48:22;;;;;;;5.68;4.97;;;24.40;99.90;;;;;;5032849;28;20528;-70
2023/09/07 09:50:49;;;;;;;6.40;4.85;;;24.40;99.90;;;;;;5032384;28;20184;-70
2023/09/07 09:53:20;;;;;;;6.38;5.20;;;24.50;99.90;;;;;;5033245;28;20075;-70
2023/09/07 09:55:50;;;;;;;5.35;4.82;;;24.60;99.90;;;;;;4998345;28;20040;-71
2023/09/07 09:58:16;;;;;;;;;;;24.80;99.90;;;;;;5033455;28;20029;-70
2023/09/07 10:00:48;;;;;;;7.10;6.22;;;24.90;99.90;;;;;;5032804;28;19905;-70
2023/09/07 10:03:23;;;;;;;8.50;5.70;;;25.10;99.90;;;;;;5030126;28;20071;-70
2023/09/07 10:05:49;;;;;;;7.53;5.00;;;25.20;99.90;;;;;;5033255;28;20029;-70
2023/09/07 10:08:17;;;;;;;7.03;5.40;;;25.20;99.90;;;;;;5033559;28;20370;-70
2023/09/07 10:10:46;;;;;;;11.30;5.80;;;25.30;99.90;;;;;;5031417;28;20043;-69
2023/09/07 10:13:15;;;;;;;7.07;5.60;;;25.30;99.90;;;;;;5030333;28;20095;-69
2023/09/07 10:15:41;;;;;;;6.90;5.07;;;25.40;99.90;;;;;;5032740;28;20084;-70
2023/09/07 10:18:10;;;;;;;7.45;5.40;;;25.50;99.90;;;;;;5032762;28;20045;-70
2023/09/07 10:20:55;;;;;;;8.85;6.70;;;25.50;99.90;;;;;;5032847;28;20036;-69
2023/09/07 10:23:20;;;;;;;7.78;6.32;;;25.70;99.90;;;;;;5032772;28;20045;-68
2023/09/07 10:25:53;;;;;;;8.23;6.07;;;25.70;99.90;;;;;;5032423;28;20036;-71
2023/09/07 10:28:25;;;;;;;8.38;6.43;;;25.70;99.90;;;;;;5032684;28;20490;-68
2023/09/07 10:31:05;;;;;;;10.35;6.40;;;25.80;99.90;;;;;;5031815;28;20025;-73
2023/09/07 10:33:32;;;;;;;8.55;6.40;;;25.90;99.90;;;;;;5039948;28;20026;-65
2023/09/07 10:35:58;;;;;;;9.52;5.95;;;25.80;99.90;;;;;;5032688;28;20030;-74
2023/09/07 10:38:24;;;;;;;10.23;7.00;;;25.80;99.90;;;;;;5017509;28;20425;-72
2023/09/07 10:40:57;;;;;;;12.77;6.93;;;25.90;99.90;;;;;;5014635;28;20034;-69
2023/09/07 10:43:26;;;;;;;15.10;9.23;;;25.90;99.90;;;;;;5019165;28;20356;-75
2023/09/07 10:45:52;;;;;;;10.60;7.38;;;25.90;99.90;;;;;;5024525;28;20069;-74
2023/09/07 10:48:18;;;;;;;16.42;7.53;;;26.00;99.90;;;;;;5020876;28;20112;-69
2023/09/07 10:50:47;;;;;;;9.90;6.30;;;25.80;99.90;;;;;;5032070;28;20187;-72
2023/09/07 10:53:14;;;;;;;9.38;6.70;;;25.80;99.90;;;;;;5032100;28;20108;-72
2023/09/07 10:55:42;;;;;;;7.57;6.45;;;25.90;99.90;;;;;;5031588;28;20044;-74
2023/09/07 10:58:09;;;;;;;9.15;6.40;;;25.90;99.90;;;;;;5032629;28;20390;-72
2023/09/07 11:00:35;;;;;;;8.65;5.95;;;25.90;99.90;;;;;;5031447;28;20383;-72
2023/09/07 11:03:10;;;;;;;8.77;6.53;;;26.00;99.90;;;;;;5029892;28;20120;-72
2023/09/07 11:05:38;;;;;;;10.82;7.13;;;26.10;99.90;;;;;;5028969;28;20073;-74
2023/09/07 11:08:07;;;;;;;9.10;5.28;;;26.10;99.90;;;;;;5031912;28;20025;-74
2023/09/07 11:10:34;;;;;;;10.87;7.17;;;26.20;99.90;;;;;;5030932;28;20033;-69
2023/09/07 11:13:04;;;;;;;8.65;5.93;;;26.20;99.90;;;;;;5031913;28;20116;-73
2023/09/07 11:15:31;;;;;;;10.35;6.35;;;26.20;99.90;;;;;;5031347;28;20041;-74
2023/09/07 11:17:57;;;;;;;7.13;6.05;;;26.20;99.90;;;;;;5031276;28;20025;-73
2023/09/07 11:20:23;;;;;;;9.13;5.90;;;26.30;99.90;;;;;;5031606;28;20485;-75
2023/09/07 11:22:49;;;;;;;8.65;5.78;;;26.30;99.90;;;;;;5020921;28;20085;-75
2023/09/07 11:25:15;;;;;;;9.57;5.60;;;26.50;99.90;;;;;;5026098;28;20037;-71
2023/09/07 11:27:41;;;;;;;9.57;5.78;;;26.60;99.90;;;;;;5031990;28;20060;-72
2023/09/07 11:30:08;;;;;;;7.65;5.78;;;26.80;99.90;;;;;;5035810;28;20051;-72
2023/09/07 11:32:34;;;;;;;6.57;5.65;;;26.80;99.90;;;;;;5030129;28;20025;-72
2023/09/07 11:35:00;;;;;;;6.78;5.78;;;27.00;99.90;;;;;;5027412;28;20041;-70
2023/09/07 11:37:26;;;;;;;5.95;5.30;;;27.10;99.90;;;;;;5031376;28;20112;-71
2023/09/07 11:39:52;;;;;;;6.97;4.82;;;27.20;99.90;;;;;;5026947;28;20038;-71
2023/09/07 11:42:17;;;;;;;12.07;6.40;;;27.30;99.90;;;;;;5024842;28;20021;-70
2023/09/07 11:44:43;;;;;;;8.93;5.38;;;27.40;99.60;;;;;;5022349;28;20030;-69
2023/09/07 11:47:09;;;;;;;7.28;4.80;;;27.30;99.90;;;;;;5031025;28;20128;-69
2023/09/07 11:49:34;;;;;;;8.27;5.75;;;27.40;99.40;;;;;;5037966;28;20075;-71
2023/09/07 11:52:00;;;;;;;7.30;5.07;;;27.40;99.50;;;;;;5031424;28;20101;-70
2023/09/07 11:54:26;;;;;;;5.32;4.80;;;27.50;99.40;;;;;;5028516;28;20083;-71
2023/09/07 11:56:51;;;;;;;5.25;4.75;;;27.60;99.30;;;;;;5030605;28;20040;-70
2023/09/07 11:59:17;;;;;;;7.90;5.15;;;27.70;99.00;;;;;;5030460;28;20025;-70
2023/09/07 12:01:43;;;;;;;4.88;4.45;;;27.80;98.80;;;;;;5033871;28;20028;-71
2023/09/07 12:04:09;;;;;;;4.97;4.47;;;27.80;98.90;;;;;;5030510;28;20026;-71
2023/09/07 12:06:35;;;;;;;6.47;5.15;;;27.90;98.60;;;;;;5030427;28;20037;-71
2023/09/07 12:09:02;;;;;;;7.35;5.00;;;27.90;98.60;;;;;;5030841;28;20391;-71
2023/09/07 12:11:28;;;;;;;4.85;4.45;;;28.00;98.70;;;;;;5030336;28;20029;-72
2023/09/07 12:13:54;;;;;;;7.22;5.32;;;28.00;99.00;;;;;;5030275;28;20027;-71
2023/09/07 12:16:20;;;;;;;5.13;4.30;;;28.10;98.30;;;;;;5031003;28;20044;-70
2023/09/07 12:18:45;;;;;;;8.00;4.38;;;28.20;98.30;;;;;;5033573;28;20021;-70
2023/09/07 12:21:11;;;;;;;7.78;4.32;;;28.40;97.90;;;;;;5030925;28;20394;-70
2023/09/07 12:23:36;;;;;;;4.90;4.40;;;28.60;97.20;;;;;;5029079;28;20124;-70
2023/09/07 12:26:04;;;;;;;6.70;4.47;;;28.70;97.30;;;;;;5031384;28;20029;-70
2023/09/07 12:28:30;;;;;;;6.80;4.22;;;28.80;96.70;;;;;;5029473;28;20033;-71
2023/09/07 12:30:56;;;;;;;5.15;4.43;;;28.70;96.90;;;;;;5034375;28;20104;-70
2023/09/07 12:33:21;;;;;;;5.07;4.57;;;28.80;96.60;;;;;;5034141;28;20108;-70
2023/09/07 12:35:47;;;;;;;4.90;4.40;;;28.90;96.90;;;;;;5033765;28;20031;-70
2023/09/07 12:38:17;;;;;;;6.55;4.45;;;29.00;96.20;;;;;;5033879;28;20435;-70
2023/09/07 12:40:43;;;;;;;4.20;3.80;;;29.10;96.00;;;;;;5026591;28;20537;-70
2023/09/07 12:43:12;;;;;;;4.75;4.35;;;;;;;;;;5033819;28;20116;-70
2023/09/07 12:45:37;;;;;;;7.88;4.68;;;29.40;95.50;;;;;;5033996;28;20406;-70